sensor_id;sensor_type;location;lat;lon;timestamp;temperature;humidity
6256;DHT22;3161;48.794;9.784;2023-07-09T00:01:43;20.80;99.10
6256;DHT22;3161;48.794;9.784;2023-07-09T00:04:12;20.70;97.20
6256;DHT22;3161;48.794;9.784;2023-07-09T00:06:40;20.70;97.30
6256;DHT22;3161;48.794;9.784;2023-07-09T00:09:16;20.70;97.40
6256;DHT22;3161;48.794;9.784;2023-07-09T00:11:44;20.70;97.90
6256;DHT22;3161;48.794;9.784;2023-07-09T00:14:14;20.60;98.20
6256;DHT22;3161;48.794;9.784;2023-07-09T00:16:44;20.60;98.50
6256;DHT22;3161;48.794;9.784;2023-07-09T00:19:16;20.60;98.70
6256;DHT22;3161;48.794;9.784;2023-07-09T00:21:46;20.60;98.90
6256;DHT22;3161;48.794;9.784;2023-07-09T00:24:13;20.50;98.70
6256;DHT22;3161;48.794;9.784;2023-07-09T00:26:41;20.50;99.20
6256;DHT22;3161;48.794;9.784;2023-07-09T00:29:10;20.40;99.40
6256;DHT22;3161;48.794;9.784;2023-07-09T00:31:38;20.40;99.60
6256;DHT22;3161;48.794;9.784;2023-07-09T00:34:08;20.30;99.90
6256;DHT22;3161;48.794;9.784;2023-07-09T00:36:38;20.30;99.90
6256;DHT22;3161;48.794;9.784;2023-07-09T00:39:12;20.30;99.90
6256;DHT22;3161;48.794;9.784;2023-07-09T00:41:37;20.20;99.90
6256;DHT22;3161;48.794;9.784;2023-07-09T00:44:28;20.20;99.90
6256;DHT22;3161;48.794;9.784;2023-07-09T00:49:33;20.20;99.90
6256;DHT22;3161;48.794;9.784;2023-07-09T00:52:05;20.10;99.90
6256;DHT22;3161;48.794;9.784;2023-07-09T00:54:36;20.10;99.90
6256;DHT22;3161;48.794;9.784;2023-07-09T00:57:10;20.00;99.90
6256;DHT22;3161;48.794;9.784;2023-07-09T00:59:38;20.00;99.90
6256;DHT22;3161;48.794;9.784;2023-07-09T01:02:07;20.00;99.90
6256;DHT22;3161;48.794;9.784;2023-07-09T01:04:35;19.90;99.90
6256;DHT22;3161;48.794;9.784;2023-07-09T01:07:05;19.90;99.90
6256;DHT22;3161;48.794;9.784;2023-07-09T01:09:33;19.90;99.90
6256;DHT22;3161;48.794;9.784;2023-07-09T01:12:04;19.80;99.90
6256;DHT22;3161;48.794;9.784;2023-07-09T01:14:33;19.80;99.90
6256;DHT22;3161;48.794;9.784;2023-07-09T01:17:04;19.70;99.90
6256;DHT22;3161;48.794;9.784;2023-07-09T01:19:39;19.70;99.90
6256;DHT22;3161;48.794;9.784;2023-07-09T01:22:14;19.70;99.90
6256;DHT22;3161;48.794;9.784;2023-07-09T01:24:58;19.60;99.90
6256;DHT22;3161;48.794;9.784;2023-07-09T01:27:37;19.60;99.90
6256;DHT22;3161;48.794;9.784;2023-07-09T01:30:07;19.60;99.90
6256;DHT22;3161;48.794;9.784;2023-07-09T01:32:36;19.50;99.90
6256;DHT22;3161;48.794;9.784;2023-07-09T01:35:05;19.50;99.90
6256;DHT22;3161;48.794;9.784;2023-07-09T01:37:35;19.50;99.90
6256;DHT22;3161;48.794;9.784;2023-07-09T01:40:04;19.40;99.90
6256;DHT22;3161;48.794;9.784;2023-07-09T01:42:33;19.40;99.90
6256;DHT22;3161;48.794;9.784;2023-07-09T01:45:00;19.40;99.90
6256;DHT22;3161;48.794;9.784;2023-07-09T01:47:30;19.30;99.90
6256;DHT22;3161;48.794;9.784;2023-07-09T01:49:58;19.30;99.90
6256;DHT22;3161;48.794;9.784;2023-07-09T01:52:28;19.30;99.90
6256;DHT22;3161;48.794;9.784;2023-07-09T01:54:56;19.60;99.90
6256;DHT22;3161;48.794;9.784;2023-07-09T01:57:26;19.30;99.90
6256;DHT22;3161;48.794;9.784;2023-07-09T01:59:56;19.20;99.90
6256;DHT22;3161;48.794;9.784;2023-07-09T02:02:24;19.20;99.90
6256;DHT22;3161;48.794;9.784;2023-07-09T02:04:54;19.20;99.90
6256;DHT22;3161;48.794;9.784;2023-07-09T02:07:23;19.10;99.90
6256;DHT22;3161;48.794;9.784;2023-07-09T02:09:52;19.10;99.90
6256;DHT22;3161;48.794;9.784;2023-07-09T02:12:20;19.10;99.90
6256;DHT22;3161;48.794;9.784;2023-07-09T02:14:48;19.10;99.90
6256;DHT22;3161;48.794;9.784;2023-07-09T02:17:15;19.00;99.90
6256;DHT22;3161;48.794;9.784;2023-07-09T02:19:44;19.00;99.90
6256;DHT22;3161;48.794;9.784;2023-07-09T02:22:12;19.00;99.90
6256;DHT22;3161;48.794;9.784;2023-07-09T02:24:39;19.00;99.90
6256;DHT22;3161;48.794;9.784;2023-07-09T02:27:09;19.00;99.90
6256;DHT22;3161;48.794;9.784;2023-07-09T02:29:37;19.00;99.90
6256;DHT22;3161;48.794;9.784;2023-07-09T02:32:05;18.90;99.90
6256;DHT22;3161;48.794;9.784;2023-07-09T02:34:33;18.90;99.90
6256;DHT22;3161;48.794;9.784;2023-07-09T02:37:01;18.90;99.90
6256;DHT22;3161;48.794;9.784;2023-07-09T02:39:29;18.80;99.90
6256;DHT22;3161;48.794;9.784;2023-07-09T02:41:56;18.80;99.90
6256;DHT22;3161;48.794;9.784;2023-07-09T02:44:24;18.80;99.90
6256;DHT22;3161;48.794;9.784;2023-07-09T02:46:51;18.70;99.90
6256;DHT22;3161;48.794;9.784;2023-07-09T02:49:19;18.70;99.90
6256;DHT22;3161;48.794;9.784;2023-07-09T02:51:46;18.70;99.90
6256;DHT22;3161;48.794;9.784;2023-07-09T02:54:14;18.70;99.90
6256;DHT22;3161;48.794;9.784;2023-07-09T02:56:41;18.70;99.90
6256;DHT22;3161;48.794;9.784;2023-07-09T02:59:09;18.60;99.90
6256;DHT22;3161;48.794;9.784;2023-07-09T03:01:38;18.60;99.90
6256;DHT22;3161;48.794;9.784;2023-07-09T03:04:06;18.60;99.90
6256;DHT22;3161;48.794;9.784;2023-07-09T03:06:35;18.60;99.90
6256;DHT22;3161;48.794;9.784;2023-07-09T03:09:05;18.60;99.90
6256;DHT22;3161;48.794;9.784;2023-07-09T03:11:33;18.50;99.90
6256;DHT22;3161;48.794;9.784;2023-07-09T03:14:02;18.50;99.90
6256;DHT22;3161;48.794;9.784;2023-07-09T03:16:32;18.50;99.90
6256;DHT22;3161;48.794;9.784;2023-07-09T03:19:00;18.40;99.90
6256;DHT22;3161;48.794;9.784;2023-07-09T03:21:29;18.40;99.90
6256;DHT22;3161;48.794;9.784;2023-07-09T03:23:57;18.40;99.90
6256;DHT22;3161;48.794;9.784;2023-07-09T03:26:25;18.40;99.90
6256;DHT22;3161;48.794;9.784;2023-07-09T03:28:53;18.30;99.90
6256;DHT22;3161;48.794;9.784;2023-07-09T03:31:22;18.40;99.90
6256;DHT22;3161;48.794;9.784;2023-07-09T03:33:51;18.30;99.90
6256;DHT22;3161;48.794;9.784;2023-07-09T03:36:19;18.30;99.90
6256;DHT22;3161;48.794;9.784;2023-07-09T03:38:47;18.30;99.90
6256;DHT22;3161;48.794;9.784;2023-07-09T03:41:16;18.30;99.90
6256;DHT22;3161;48.794;9.784;2023-07-09T03:43:43;18.30;99.90
6256;DHT22;3161;48.794;9.784;2023-07-09T03:46:11;18.30;99.90
6256;DHT22;3161;48.794;9.784;2023-07-09T03:48:39;18.30;99.90
6256;DHT22;3161;48.794;9.784;2023-07-09T03:51:06;18.20;99.90
6256;DHT22;3161;48.794;9.784;2023-07-09T03:53:34;18.30;99.90
6256;DHT22;3161;48.794;9.784;2023-07-09T03:56:01;18.30;99.90
6256;DHT22;3161;48.794;9.784;2023-07-09T03:58:29;18.30;99.90
6256;DHT22;3161;48.794;9.784;2023-07-09T04:00:57;18.20;99.90
6256;DHT22;3161;48.794;9.784;2023-07-09T04:03:24;18.20;99.90
6256;DHT22;3161;48.794;9.784;2023-07-09T04:05:52;18.20;99.90
6256;DHT22;3161;48.794;9.784;2023-07-09T04:08:19;18.20;99.90
6256;DHT22;3161;48.794;9.784;2023-07-09T04:10:47;18.20;99.90
6256;DHT22;3161;48.794;9.784;2023-07-09T04:13:14;17.60;99.90
6256;DHT22;3161;48.794;9.784;2023-07-09T04:15:43;18.20;99.90
6256;DHT22;3161;48.794;9.784;2023-07-09T04:18:11;18.20;99.90
6256;DHT22;3161;48.794;9.784;2023-07-09T04:20:38;18.20;99.90
6256;DHT22;3161;48.794;9.784;2023-07-09T04:23:06;18.20;99.90
6256;DHT22;3161;48.794;9.784;2023-07-09T04:25:33;18.20;99.90
6256;DHT22;3161;48.794;9.784;2023-07-09T04:28:01;18.30;99.90
6256;DHT22;3161;48.794;9.784;2023-07-09T04:30:28;18.20;99.90
6256;DHT22;3161;48.794;9.784;2023-07-09T04:32:56;18.30;99.90
6256;DHT22;3161;48.794;9.784;2023-07-09T04:35:24;18.30;99.90
6256;DHT22;3161;48.794;9.784;2023-07-09T04:37:52;18.30;99.90
6256;DHT22;3161;48.794;9.784;2023-07-09T04:40:19;18.40;99.90
6256;DHT22;3161;48.794;9.784;2023-07-09T04:42:47;18.40;99.90
6256;DHT22;3161;48.794;9.784;2023-07-09T04:45:15;18.40;99.90
6256;DHT22;3161;48.794;9.784;2023-07-09T04:47:42;18.50;99.90
6256;DHT22;3161;48.794;9.784;2023-07-09T04:50:11;18.50;99.90
6256;DHT22;3161;48.794;9.784;2023-07-09T04:52:39;18.50;99.90
6256;DHT22;3161;48.794;9.784;2023-07-09T04:55:07;18.60;99.90
6256;DHT22;3161;48.794;9.784;2023-07-09T04:57:35;18.60;99.90
6256;DHT22;3161;48.794;9.784;2023-07-09T05:00:04;18.70;99.90
6256;DHT22;3161;48.794;9.784;2023-07-09T05:02:33;18.70;99.90
6256;DHT22;3161;48.794;9.784;2023-07-09T05:05:01;18.80;99.90
6256;DHT22;3161;48.794;9.784;2023-07-09T05:07:28;18.80;99.90
6256;DHT22;3161;48.794;9.784;2023-07-09T05:09:56;18.90;99.90
6256;DHT22;3161;48.794;9.784;2023-07-09T05:12:28;19.00;99.90
6256;DHT22;3161;48.794;9.784;2023-07-09T05:14:56;19.00;99.90
6256;DHT22;3161;48.794;9.784;2023-07-09T05:17:23;19.10;99.90
6256;DHT22;3161;48.794;9.784;2023-07-09T05:19:51;19.20;99.90
6256;DHT22;3161;48.794;9.784;2023-07-09T05:22:19;19.30;99.90
6256;DHT22;3161;48.794;9.784;2023-07-09T05:24:46;19.40;99.90
6256;DHT22;3161;48.794;9.784;2023-07-09T05:27:14;19.40;99.90
6256;DHT22;3161;48.794;9.784;2023-07-09T05:29:41;19.50;99.90
6256;DHT22;3161;48.794;9.784;2023-07-09T05:32:09;19.60;99.90
6256;DHT22;3161;48.794;9.784;2023-07-09T05:34:36;19.70;99.90
6256;DHT22;3161;48.794;9.784;2023-07-09T05:37:04;19.80;99.90
6256;DHT22;3161;48.794;9.784;2023-07-09T05:39:31;19.90;99.90
6256;DHT22;3161;48.794;9.784;2023-07-09T05:41:59;20.00;99.90
6256;DHT22;3161;48.794;9.784;2023-07-09T05:44:26;20.10;99.90
6256;DHT22;3161;48.794;9.784;2023-07-09T05:46:54;20.20;99.90
6256;DHT22;3161;48.794;9.784;2023-07-09T05:49:21;20.30;99.90
6256;DHT22;3161;48.794;9.784;2023-07-09T05:51:49;20.50;99.90
6256;DHT22;3161;48.794;9.784;2023-07-09T05:54:17;20.50;99.90
6256;DHT22;3161;48.794;9.784;2023-07-09T05:56:45;20.70;99.90
6256;DHT22;3161;48.794;9.784;2023-07-09T05:59:12;20.80;99.90
6256;DHT22;3161;48.794;9.784;2023-07-09T06:01:40;20.90;99.90
6256;DHT22;3161;48.794;9.784;2023-07-09T06:04:07;21.00;99.90
6256;DHT22;3161;48.794;9.784;2023-07-09T06:06:35;21.10;99.90
6256;DHT22;3161;48.794;9.784;2023-07-09T06:09:02;21.30;99.90
6256;DHT22;3161;48.794;9.784;2023-07-09T06:11:30;21.40;99.90
6256;DHT22;3161;48.794;9.784;2023-07-09T06:13:58;21.60;99.90
6256;DHT22;3161;48.794;9.784;2023-07-09T06:16:26;21.60;99.90
6256;DHT22;3161;48.794;9.784;2023-07-09T06:18:54;21.80;99.90
6256;DHT22;3161;48.794;9.784;2023-07-09T06:21:21;21.90;99.90
6256;DHT22;3161;48.794;9.784;2023-07-09T06:23:49;22.00;99.90
6256;DHT22;3161;48.794;9.784;2023-07-09T06:26:16;22.20;99.90
6256;DHT22;3161;48.794;9.784;2023-07-09T06:28:44;22.40;99.90
6256;DHT22;3161;48.794;9.784;2023-07-09T06:31:12;22.50;99.90
6256;DHT22;3161;48.794;9.784;2023-07-09T06:33:39;22.70;99.90
6256;DHT22;3161;48.794;9.784;2023-07-09T06:36:08;22.80;99.90
6256;DHT22;3161;48.794;9.784;2023-07-09T06:38:35;23.00;99.90
6256;DHT22;3161;48.794;9.784;2023-07-09T06:41:03;22.40;99.90
6256;DHT22;3161;48.794;9.784;2023-07-09T06:43:31;23.30;99.90
6256;DHT22;3161;48.794;9.784;2023-07-09T06:46:00;23.50;99.90
6256;DHT22;3161;48.794;9.784;2023-07-09T06:48:29;23.60;99.90
6256;DHT22;3161;48.794;9.784;2023-07-09T06:50:57;23.80;99.90
6256;DHT22;3161;48.794;9.784;2023-07-09T06:53:26;24.00;99.90
6256;DHT22;3161;48.794;9.784;2023-07-09T06:55:55;24.20;99.90
6256;DHT22;3161;48.794;9.784;2023-07-09T06:58:27;24.40;99.90
6256;DHT22;3161;48.794;9.784;2023-07-09T07:00:55;24.60;99.90
6256;DHT22;3161;48.794;9.784;2023-07-09T07:03:23;24.80;99.90
6256;DHT22;3161;48.794;9.784;2023-07-09T07:05:53;25.00;99.90
6256;DHT22;3161;48.794;9.784;2023-07-09T07:08:22;25.20;99.90
6256;DHT22;3161;48.794;9.784;2023-07-09T07:10:55;25.30;99.90
6256;DHT22;3161;48.794;9.784;2023-07-09T07:13:25;25.50;99.90
6256;DHT22;3161;48.794;9.784;2023-07-09T07:15:52;25.70;99.90
6256;DHT22;3161;48.794;9.784;2023-07-09T07:18:20;25.90;99.90
6256;DHT22;3161;48.794;9.784;2023-07-09T07:20:47;26.00;99.90
6256;DHT22;3161;48.794;9.784;2023-07-09T07:23:17;26.20;99.90
6256;DHT22;3161;48.794;9.784;2023-07-09T07:25:48;26.40;99.90
6256;DHT22;3161;48.794;9.784;2023-07-09T07:28:16;26.50;99.90
6256;DHT22;3161;48.794;9.784;2023-07-09T07:30:44;26.70;99.90
6256;DHT22;3161;48.794;9.784;2023-07-09T07:33:13;26.80;99.90
6256;DHT22;3161;48.794;9.784;2023-07-09T07:35:42;27.00;99.90
6256;DHT22;3161;48.794;9.784;2023-07-09T07:38:10;27.10;99.90
6256;DHT22;3161;48.794;9.784;2023-07-09T07:40:37;27.30;99.90
6256;DHT22;3161;48.794;9.784;2023-07-09T07:43:05;27.50;99.90
6256;DHT22;3161;48.794;9.784;2023-07-09T07:45:32;27.80;99.10
6256;DHT22;3161;48.794;9.784;2023-07-09T07:48:00;27.90;99.10
6256;DHT22;3161;48.794;9.784;2023-07-09T07:50:27;28.10;99.90
6256;DHT22;3161;48.794;9.784;2023-07-09T07:52:55;28.30;98.70
6256;DHT22;3161;48.794;9.784;2023-07-09T07:55:22;28.50;99.30
6256;DHT22;3161;48.794;9.784;2023-07-09T07:57:50;28.60;97.70
6256;DHT22;3161;48.794;9.784;2023-07-09T08:00:18;28.80;97.30
6256;DHT22;3161;48.794;9.784;2023-07-09T08:02:45;29.00;96.60
6256;DHT22;3161;48.794;9.784;2023-07-09T08:05:13;29.20;96.50
6256;DHT22;3161;48.794;9.784;2023-07-09T08:07:41;29.40;96.50
6256;DHT22;3161;48.794;9.784;2023-07-09T08:10:10;29.50;97.80
6256;DHT22;3161;48.794;9.784;2023-07-09T08:12:38;29.70;96.90
6256;DHT22;3161;48.794;9.784;2023-07-09T08:15:07;29.90;96.10
6256;DHT22;3161;48.794;9.784;2023-07-09T08:17:35;30.10;94.60
6256;DHT22;3161;48.794;9.784;2023-07-09T08:20:02;30.20;93.80
6256;DHT22;3161;48.794;9.784;2023-07-09T08:22:30;30.30;92.20
6256;DHT22;3161;48.794;9.784;2023-07-09T08:24:58;30.50;92.20
6256;DHT22;3161;48.794;9.784;2023-07-09T08:27:25;30.70;92.30
6256;DHT22;3161;48.794;9.784;2023-07-09T08:29:53;30.90;93.10
6256;DHT22;3161;48.794;9.784;2023-07-09T08:32:20;31.00;91.90
6256;DHT22;3161;48.794;9.784;2023-07-09T08:34:48;31.20;91.80
6256;DHT22;3161;48.794;9.784;2023-07-09T08:37:15;31.40;90.80
6256;DHT22;3161;48.794;9.784;2023-07-09T08:39:43;31.50;90.50
6256;DHT22;3161;48.794;9.784;2023-07-09T08:42:13;31.70;87.70
6256;DHT22;3161;48.794;9.784;2023-07-09T08:47:23;32.00;86.70
6256;DHT22;3161;48.794;9.784;2023-07-09T08:52:28;32.20;82.10
6256;DHT22;3161;48.794;9.784;2023-07-09T08:54:56;32.20;80.00
6256;DHT22;3161;48.794;9.784;2023-07-09T08:57:27;32.40;76.40
6256;DHT22;3161;48.794;9.784;2023-07-09T09:00:02;32.50;75.40
6256;DHT22;3161;48.794;9.784;2023-07-09T09:02:35;32.60;76.80
6256;DHT22;3161;48.794;9.784;2023-07-09T09:04:57;32.70;77.20
6256;DHT22;3161;48.794;9.784;2023-07-09T09:08:30;32.80;78.30
6256;DHT22;3161;48.794;9.784;2023-07-09T09:10:04;33.00;76.70
6256;DHT22;3161;48.794;9.784;2023-07-09T09:12:56;33.10;76.90
6256;DHT22;3161;48.794;9.784;2023-07-09T09:15:22;33.20;69.00
6256;DHT22;3161;48.794;9.784;2023-07-09T09:17:54;33.30;67.80
6256;DHT22;3161;48.794;9.784;2023-07-09T09:20:22;33.30;70.30
6256;DHT22;3161;48.794;9.784;2023-07-09T09:23:09;33.40;67.60
6256;DHT22;3161;48.794;9.784;2023-07-09T09:25:27;33.50;64.60
6256;DHT22;3161;48.794;9.784;2023-07-09T09:28:04;33.60;63.80
6256;DHT22;3161;48.794;9.784;2023-07-09T09:30:31;33.70;71.40
6256;DHT22;3161;48.794;9.784;2023-07-09T09:33:10;33.80;64.40
6256;DHT22;3161;48.794;9.784;2023-07-09T09:35:42;33.90;64.10
6256;DHT22;3161;48.794;9.784;2023-07-09T09:38:17;34.00;64.30
6256;DHT22;3161;48.794;9.784;2023-07-09T09:40:45;34.10;65.30
6256;DHT22;3161;48.794;9.784;2023-07-09T09:43:20;34.20;62.90
6256;DHT22;3161;48.794;9.784;2023-07-09T09:45:50;34.30;59.80
6256;DHT22;3161;48.794;9.784;2023-07-09T09:48:29;34.30;60.30
6256;DHT22;3161;48.794;9.784;2023-07-09T09:50:58;34.40;60.90
6256;DHT22;3161;48.794;9.784;2023-07-09T09:53:30;34.40;61.30
6256;DHT22;3161;48.794;9.784;2023-07-09T09:55:58;34.50;57.50
6256;DHT22;3161;48.794;9.784;2023-07-09T09:58:30;34.60;57.00
6256;DHT22;3161;48.794;9.784;2023-07-09T10:00:59;34.60;56.50
6256;DHT22;3161;48.794;9.784;2023-07-09T10:03:34;34.60;59.40
6256;DHT22;3161;48.794;9.784;2023-07-09T10:06:06;34.70;56.30
6256;DHT22;3161;48.794;9.784;2023-07-09T10:08:52;34.50;57.00
6256;DHT22;3161;48.794;9.784;2023-07-09T10:11:38;34.60;57.70
6256;DHT22;3161;48.794;9.784;2023-07-09T10:14:04;34.60;54.10
6256;DHT22;3161;48.794;9.784;2023-07-09T10:16:39;34.60;56.90
6256;DHT22;3161;48.794;9.784;2023-07-09T10:19:21;34.60;56.60
6256;DHT22;3161;48.794;9.784;2023-07-09T10:21:58;34.60;58.60
6256;DHT22;3161;48.794;9.784;2023-07-09T10:24:45;34.70;57.20
6256;DHT22;3161;48.794;9.784;2023-07-09T10:27:25;34.70;57.30
6256;DHT22;3161;48.794;9.784;2023-07-09T10:35:26;34.80;54.90
6256;DHT22;3161;48.794;9.784;2023-07-09T10:38:21;34.80;55.10
6256;DHT22;3161;48.794;9.784;2023-07-09T10:40:46;34.80;54.50
6256;DHT22;3161;48.794;9.784;2023-07-09T10:43:24;34.80;53.90
6256;DHT22;3161;48.794;9.784;2023-07-09T10:45:49;34.80;54.30
6256;DHT22;3161;48.794;9.784;2023-07-09T10:50:57;35.00;52.50
6256;DHT22;3161;48.794;9.784;2023-07-09T10:53:47;35.10;54.10
6256;DHT22;3161;48.794;9.784;2023-07-09T10:56:22;35.10;53.10
6256;DHT22;3161;48.794;9.784;2023-07-09T10:59:01;35.20;53.60
6256;DHT22;3161;48.794;9.784;2023-07-09T11:01:41;35.30;52.50
6256;DHT22;3161;48.794;9.784;2023-07-09T11:04:37;35.40;52.60
6256;DHT22;3161;48.794;9.784;2023-07-09T11:07:03;35.40;51.60
6256;DHT22;3161;48.794;9.784;2023-07-09T11:09:33;35.40;52.10
6256;DHT22;3161;48.794;9.784;2023-07-09T11:12:08;35.40;51.00
6256;DHT22;3161;48.794;9.784;2023-07-09T11:14:45;35.40;52.10
6256;DHT22;3161;48.794;9.784;2023-07-09T11:17:18;35.40;49.60
6256;DHT22;3161;48.794;9.784;2023-07-09T11:19:53;35.40;47.00
6256;DHT22;3161;48.794;9.784;2023-07-09T11:22:24;35.40;48.60
6256;DHT22;3161;48.794;9.784;2023-07-09T11:27:34;35.40;48.10
6256;DHT22;3161;48.794;9.784;2023-07-09T11:30:27;35.50;47.50
6256;DHT22;3161;48.794;9.784;2023-07-09T11:32:33;35.50;47.80
6256;DHT22;3161;48.794;9.784;2023-07-09T11:35:09;35.50;48.70
6256;DHT22;3161;48.794;9.784;2023-07-09T11:37:48;35.60;47.20
6256;DHT22;3161;48.794;9.784;2023-07-09T11:40:10;35.60;47.40
6256;DHT22;3161;48.794;9.784;2023-07-09T11:45:25;35.80;47.90
6256;DHT22;3161;48.794;9.784;2023-07-09T11:50:47;35.90;46.80
6256;DHT22;3161;48.794;9.784;2023-07-09T11:55:52;36.10;48.50
6256;DHT22;3161;48.794;9.784;2023-07-09T11:58:19;36.20;47.70
6256;DHT22;3161;48.794;9.784;2023-07-09T12:00:49;36.30;47.50
6256;DHT22;3161;48.794;9.784;2023-07-09T12:03:26;36.60;47.40
6256;DHT22;3161;48.794;9.784;2023-07-09T12:05:59;36.80;45.80
6256;DHT22;3161;48.794;9.784;2023-07-09T12:08:40;37.10;45.60
6256;DHT22;3161;48.794;9.784;2023-07-09T12:13:52;37.50;44.40
6256;DHT22;3161;48.794;9.784;2023-07-09T12:16:22;37.50;44.50
6256;DHT22;3161;48.794;9.784;2023-07-09T12:18:50;37.60;43.70
6256;DHT22;3161;48.794;9.784;2023-07-09T12:21:18;37.60;43.30
6256;DHT22;3161;48.794;9.784;2023-07-09T12:23:46;37.70;42.90
6256;DHT22;3161;48.794;9.784;2023-07-09T12:26:17;37.70;43.10
6256;DHT22;3161;48.794;9.784;2023-07-09T12:28:56;37.80;43.20
6256;DHT22;3161;48.794;9.784;2023-07-09T12:31:30;37.80;42.90
6256;DHT22;3161;48.794;9.784;2023-07-09T12:33:59;37.80;42.70
6256;DHT22;3161;48.794;9.784;2023-07-09T12:36:27;37.70;42.80
6256;DHT22;3161;48.794;9.784;2023-07-09T12:39:00;37.70;43.70
6256;DHT22;3161;48.794;9.784;2023-07-09T12:41:39;37.60;41.30
6256;DHT22;3161;48.794;9.784;2023-07-09T12:44:18;37.60;40.60
6256;DHT22;3161;48.794;9.784;2023-07-09T12:46:48;37.50;43.00
6256;DHT22;3161;48.794;9.784;2023-07-09T12:49:29;37.50;40.90
6256;DHT22;3161;48.794;9.784;2023-07-09T12:51:58;37.40;40.90
6256;DHT22;3161;48.794;9.784;2023-07-09T12:54:28;37.40;39.80
6256;DHT22;3161;48.794;9.784;2023-07-09T12:56:58;37.40;41.00
6256;DHT22;3161;48.794;9.784;2023-07-09T12:59:35;37.50;41.00
6256;DHT22;3161;48.794;9.784;2023-07-09T13:02:17;37.70;40.30
6256;DHT22;3161;48.794;9.784;2023-07-09T13:04:44;38.00;40.00
6256;DHT22;3161;48.794;9.784;2023-07-09T13:09:57;38.90;38.40
6256;DHT22;3161;48.794;9.784;2023-07-09T13:12:31;39.80;38.60
6256;DHT22;3161;48.794;9.784;2023-07-09T13:14:59;40.80;44.00
6256;DHT22;3161;48.794;9.784;2023-07-09T13:17:30;42.00;37.60
6256;DHT22;3161;48.794;9.784;2023-07-09T13:19:58;43.20;34.20
6256;DHT22;3161;48.794;9.784;2023-07-09T13:22:27;43.60;32.70
6256;DHT22;3161;48.794;9.784;2023-07-09T13:24:55;44.00;32.60
6256;DHT22;3161;48.794;9.784;2023-07-09T13:27:23;44.20;32.50
6256;DHT22;3161;48.794;9.784;2023-07-09T13:29:51;44.00;31.60
6256;DHT22;3161;48.794;9.784;2023-07-09T13:32:18;43.80;31.70
6256;DHT22;3161;48.794;9.784;2023-07-09T13:34:46;43.80;30.30
6256;DHT22;3161;48.794;9.784;2023-07-09T13:37:16;43.50;30.10
6256;DHT22;3161;48.794;9.784;2023-07-09T13:39:43;43.10;30.60
6256;DHT22;3161;48.794;9.784;2023-07-09T13:42:21;43.00;31.10
6256;DHT22;3161;48.794;9.784;2023-07-09T13:44:50;43.20;36.30
6256;DHT22;3161;48.794;9.784;2023-07-09T13:47:18;43.50;30.10
6256;DHT22;3161;48.794;9.784;2023-07-09T13:49:53;44.50;30.60
6256;DHT22;3161;48.794;9.784;2023-07-09T13:52:22;45.30;29.80
6256;DHT22;3161;48.794;9.784;2023-07-09T13:54:52;45.80;29.50
6256;DHT22;3161;48.794;9.784;2023-07-09T13:57:21;46.00;29.10
6256;DHT22;3161;48.794;9.784;2023-07-09T13:59:49;45.30;29.20
6256;DHT22;3161;48.794;9.784;2023-07-09T14:02:29;44.00;28.00
6256;DHT22;3161;48.794;9.784;2023-07-09T14:05:01;42.50;30.70
6256;DHT22;3161;48.794;9.784;2023-07-09T14:07:34;41.40;31.90
6256;DHT22;3161;48.794;9.784;2023-07-09T14:10:07;40.70;30.70
6256;DHT22;3161;48.794;9.784;2023-07-09T14:12:32;40.00;32.90
6256;DHT22;3161;48.794;9.784;2023-07-09T14:15:01;39.40;33.50
6256;DHT22;3161;48.794;9.784;2023-07-09T14:17:30;39.10;35.00
6256;DHT22;3161;48.794;9.784;2023-07-09T14:19:57;38.90;35.30
6256;DHT22;3161;48.794;9.784;2023-07-09T14:22:30;38.60;35.30
6256;DHT22;3161;48.794;9.784;2023-07-09T14:24:57;38.40;35.90
6256;DHT22;3161;48.794;9.784;2023-07-09T14:27:25;38.20;36.20
6256;DHT22;3161;48.794;9.784;2023-07-09T14:29:54;38.00;36.50
6256;DHT22;3161;48.794;9.784;2023-07-09T14:32:36;37.80;36.90
6256;DHT22;3161;48.794;9.784;2023-07-09T14:35:14;37.80;37.40
6256;DHT22;3161;48.794;9.784;2023-07-09T14:37:40;37.60;36.30
6256;DHT22;3161;48.794;9.784;2023-07-09T14:40:08;37.50;36.80
6256;DHT22;3161;48.794;9.784;2023-07-09T14:42:38;37.30;36.80
6256;DHT22;3161;48.794;9.784;2023-07-09T14:45:17;37.10;36.90
6256;DHT22;3161;48.794;9.784;2023-07-09T14:47:45;37.00;36.50
6256;DHT22;3161;48.794;9.784;2023-07-09T14:50:13;36.80;37.20
6256;DHT22;3161;48.794;9.784;2023-07-09T14:52:42;36.70;37.70
6256;DHT22;3161;48.794;9.784;2023-07-09T14:55:18;36.60;37.00
6256;DHT22;3161;48.794;9.784;2023-07-09T14:57:46;36.50;36.40
6256;DHT22;3161;48.794;9.784;2023-07-09T15:00:16;36.20;37.90
6256;DHT22;3161;48.794;9.784;2023-07-09T15:02:45;36.10;38.60
6256;DHT22;3161;48.794;9.784;2023-07-09T15:05:20;36.00;38.10
6256;DHT22;3161;48.794;9.784;2023-07-09T15:07:44;35.80;36.80
6256;DHT22;3161;48.794;9.784;2023-07-09T15:10:22;35.70;38.60
6256;DHT22;3161;48.794;9.784;2023-07-09T15:12:51;35.50;38.30
6256;DHT22;3161;48.794;9.784;2023-07-09T15:15:22;35.40;38.50
6256;DHT22;3161;48.794;9.784;2023-07-09T15:17:49;35.30;39.00
6256;DHT22;3161;48.794;9.784;2023-07-09T15:20:19;35.30;39.00
6256;DHT22;3161;48.794;9.784;2023-07-09T15:22:49;35.30;38.90
6256;DHT22;3161;48.794;9.784;2023-07-09T15:25:22;35.20;38.80
6256;DHT22;3161;48.794;9.784;2023-07-09T15:27:51;35.20;39.00
6256;DHT22;3161;48.794;9.784;2023-07-09T15:30:24;35.30;39.70
6256;DHT22;3161;48.794;9.784;2023-07-09T15:32:59;35.30;38.70
6256;DHT22;3161;48.794;9.784;2023-07-09T15:35:23;35.30;37.90
6256;DHT22;3161;48.794;9.784;2023-07-09T15:37:52;35.20;37.70
6256;DHT22;3161;48.794;9.784;2023-07-09T15:40:25;35.20;39.10
6256;DHT22;3161;48.794;9.784;2023-07-09T15:43:05;35.20;38.90
6256;DHT22;3161;48.794;9.784;2023-07-09T15:45:40;35.30;39.30
6256;DHT22;3161;48.794;9.784;2023-07-09T15:48:32;35.30;38.90
6256;DHT22;3161;48.794;9.784;2023-07-09T15:50:38;35.30;39.10
6256;DHT22;3161;48.794;9.784;2023-07-09T15:53:09;35.30;38.60
6256;DHT22;3161;48.794;9.784;2023-07-09T15:55:37;35.30;39.40
6256;DHT22;3161;48.794;9.784;2023-07-09T15:58:07;35.20;38.20
6256;DHT22;3161;48.794;9.784;2023-07-09T16:00:35;35.20;38.70
6256;DHT22;3161;48.794;9.784;2023-07-09T16:03:04;35.10;39.00
6256;DHT22;3161;48.794;9.784;2023-07-09T16:05:32;35.10;38.70
6256;DHT22;3161;48.794;9.784;2023-07-09T16:08:02;35.10;39.20
6256;DHT22;3161;48.794;9.784;2023-07-09T16:10:30;35.00;38.90
6256;DHT22;3161;48.794;9.784;2023-07-09T16:12:58;35.00;39.00
6256;DHT22;3161;48.794;9.784;2023-07-09T16:15:26;34.90;39.30
6256;DHT22;3161;48.794;9.784;2023-07-09T16:17:54;34.90;38.50
6256;DHT22;3161;48.794;9.784;2023-07-09T16:20:27;34.90;38.70
6256;DHT22;3161;48.794;9.784;2023-07-09T16:22:56;34.80;39.80
6256;DHT22;3161;48.794;9.784;2023-07-09T16:25:35;34.70;39.30
6256;DHT22;3161;48.794;9.784;2023-07-09T16:27:55;34.60;39.30
6256;DHT22;3161;48.794;9.784;2023-07-09T16:30:42;34.60;39.00
6256;DHT22;3161;48.794;9.784;2023-07-09T16:33:10;34.60;45.00
6256;DHT22;3161;48.794;9.784;2023-07-09T16:35:39;34.50;40.00
6256;DHT22;3161;48.794;9.784;2023-07-09T16:38:11;34.50;40.90
6256;DHT22;3161;48.794;9.784;2023-07-09T16:40:40;34.50;40.40
6256;DHT22;3161;48.794;9.784;2023-07-09T16:43:20;34.40;40.20
6256;DHT22;3161;48.794;9.784;2023-07-09T16:45:48;34.40;39.50
6256;DHT22;3161;48.794;9.784;2023-07-09T16:48:20;34.40;39.40
6256;DHT22;3161;48.794;9.784;2023-07-09T16:50:51;34.30;40.30
6256;DHT22;3161;48.794;9.784;2023-07-09T16:53:20;34.30;39.10